Flugplatz Roth Army (ETHR)

Hier findest Du alle Informationen zum Flugplatz Roth Army (ETHR).

Informationen für Piloten zum Flugplatz Roth Army

Hier findest Du alle relevanten Informationen, die Du als Pilot benötigst, um Roth Army anzufliegen.

Flugplatz: Roth Army ICAO-Code: ETHR
Frequenz Turm: 122,100 Mhz GAFOR Gebiet: 55
Frequenz Ground: 122,100 Mhz Mogas: nein
Platzrunde: N 1800 ft Landegebühr: -
Platzhöhe: - Sunrise: 05:08 Uhr UTC
Pisten: 09/27 - 535 m x 30 m, ASPH Sunset: 17:04 Uhr UTC

Flugwetter am Flugplatz Roth Army

Die METAR Information stammen aus EDDN (31.31 km entfernt).

METAR Code:
2020/09/21 08:20
EDDN 210820Z VRB02KT CAVOK 17/10 Q1017 NOSIG

Temperatur: 13,3 °C Niederschlag: - Wind: 6,0 kt
Temperatur (min.): 10,6 °C Luftdruck: 1006 hPa Windrichtung: 190 °
Temperatur (max.): 15,6 °C Luftfeuchtigkeit: 54 % Bewölkung: 2/8

Flugschulen am Flugplatz Roth Army

Am Flugplatz Roth Army gibt es leider keine Flugschule.

Benachbarte Flugplätze und Flugschulen

Es gibt 23 weitere Flugplätze in einem Umkreis von 50 km um den Flugplatz Roth Army.

Jetzt anmelden

Passwort vergessen

Umfrage Archiv

Wären Rettungsgeräte keine Pflicht mehr, würdet Ihr Euer UL trotzdem mit einem ausstatten?

Ja
85.8 %
Nein
14.2 %
Stimmen: 323 | Diskussion
Anzeige: Roland Aircraft
Statistik Alle Mitglieder

Aktuell sind 57 Besucher online, davon 1 Mitglied und 56 Gäste.


Mitglieder online:
Tregü 

Anzeige: VFR Sprechfunk Simulator


Anzeige: Pocket FMS